Dover, Oregon
Current Conditions -  °F | °C
As of 7:53 AM on Monday 24 Nov 2014 (Local Time) from KTTD Reporting Station
Overcast Overcast  
Wind Chill: 48°   Ceiling: 3400
Heat Index: 48°   Visibility: 10mi
Dew Point: 45°   Wind: 3mph
Humidity: 89%   Direction: 110°ESE
Pressure: 30.36"   Gusts: NA
Location:  45.3467°N, 122.335°W
Report Text: KTTD 241553Z 11003KT 10SM OVC034 09/07 A3036 RMK AO2 SLP281 T00890072
Loading
Personal Weather Stations






























Interactive Weather Map New forecast layout! Learn more

10-Day Weather Forecast

Advertisements
Track Severe Weather on mobile